createdAt,value
2023-10-23T00:00:03.647Z,6.18
2023-10-23T00:05:13.596Z,4.97
2023-10-23T00:10:16.381Z,7.18
2023-10-23T00:20:21.557Z,2.40
2023-10-23T00:25:23.762Z,1.90
2023-10-23T00:30:25.955Z,1.92
2023-10-23T00:35:28.080Z,1.80
2023-10-23T00:40:30.945Z,3.22
2023-10-23T00:45:33.521Z,1.00
2023-10-23T00:50:36.098Z,2.30
2023-10-23T00:55:38.844Z,0.62
2023-10-23T01:00:41.799Z,2.35
2023-10-23T01:05:44.751Z,0.70
2023-10-23T01:10:47.437Z,1.35
2023-10-23T01:20:52.310Z,3.45
2023-10-23T01:25:55.080Z,3.85
2023-10-23T01:30:57.322Z,3.80
2023-10-23T01:35:59.531Z,6.93
2023-10-23T01:41:01.892Z,3.78
2023-10-23T01:46:04.247Z,0.73
2023-10-23T01:51:06.448Z,3.72
2023-10-23T01:56:09.498Z,2.95
2023-10-23T02:01:34.074Z,6.65
2023-10-23T02:06:36.369Z,6.47
2023-10-23T02:11:38.522Z,0.95
2023-10-23T02:16:40.787Z,1.33
2023-10-23T02:21:50.528Z,3.40
2023-10-23T02:26:55.351Z,2.90
2023-10-23T02:31:57.875Z,6.53
2023-10-23T02:37:00.027Z,2.58
2023-10-23T02:42:02.704Z,0.55
2023-10-23T02:47:05.104Z,3.93
2023-10-23T02:52:07.259Z,3.45
2023-10-23T02:57:09.341Z,2.45
2023-10-23T03:02:11.473Z,4.55
2023-10-23T03:07:14.687Z,2.22
2023-10-23T03:12:16.807Z,2.97
2023-10-23T03:17:19.623Z,2.83
2023-10-23T03:22:21.773Z,1.90
2023-10-23T03:27:23.924Z,3.90
2023-10-23T03:32:26.341Z,5.20
2023-10-23T03:37:28.798Z,9.73
2023-10-23T03:42:30.953Z,3.47
2023-10-23T03:47:33.177Z,3.12
2023-10-23T03:52:35.304Z,4.20
2023-10-23T03:57:37.411Z,2.58
2023-10-23T04:02:39.616Z,2.53
2023-10-23T04:07:42.280Z,6.47
2023-10-23T04:17:46.785Z,4.40
2023-10-23T04:22:49.419Z,7.47
2023-10-23T04:32:54.022Z,3.00
2023-10-23T04:37:56.126Z,0.70
2023-10-23T04:42:58.244Z,9.85
2023-10-23T04:48:00.408Z,1.20
2023-10-23T04:53:03.064Z,8.55
2023-10-23T04:58:05.674Z,2.15
2023-10-23T05:03:09.734Z,3.40
2023-10-23T05:08:11.890Z,6.40
2023-10-23T05:13:14.518Z,1.90
2023-10-23T05:23:19.042Z,5.00
2023-10-23T05:28:21.138Z,7.40
2023-10-23T05:33:23.589Z,6.12
2023-10-23T05:43:28.532Z,1.15
2023-10-23T05:48:32.113Z,8.10
2023-10-23T05:53:35.804Z,7.70
2023-10-23T05:58:38.208Z,5.85
2023-10-23T06:03:40.438Z,16.80
2023-10-23T06:08:42.818Z,3.15
2023-10-23T06:13:44.891Z,4.20
2023-10-23T06:18:47.003Z,1.48
2023-10-23T06:23:49.568Z,0.85
2023-10-23T06:33:54.372Z,1.10
2023-10-23T06:38:56.827Z,0.45
2023-10-23T06:43:58.930Z,1.45
2023-10-23T06:49:00.990Z,0.60
2023-10-23T06:54:05.133Z,0.88
2023-10-23T06:59:07.271Z,3.30
2023-10-23T07:04:09.562Z,2.65
2023-10-23T07:09:11.939Z,3.35
2023-10-23T07:14:15.241Z,2.65
2023-10-23T07:19:17.327Z,3.03
2023-10-23T07:24:19.868Z,4.37
2023-10-23T07:29:22.125Z,6.75
2023-10-23T07:34:24.325Z,2.97
2023-10-23T07:39:26.849Z,4.90
2023-10-23T07:44:28.940Z,4.90
2023-10-23T07:49:31.086Z,2.90
2023-10-23T07:54:33.281Z,5.65
2023-10-23T07:59:35.451Z,3.55
2023-10-23T08:04:37.779Z,3.28
2023-10-23T08:09:40.325Z,5.12
2023-10-23T08:19:44.952Z,13.63
2023-10-23T08:24:47.853Z,16.85
2023-10-23T08:29:50.384Z,5.85
2023-10-23T08:34:55.961Z,10.68
2023-10-23T08:39:58.461Z,12.05
2023-10-23T08:50:04.425Z,7.43
2023-10-23T08:55:11.386Z,9.93
2023-10-23T09:00:14.297Z,7.40
2023-10-23T09:05:16.976Z,7.53
2023-10-23T09:10:24.220Z,12.40
2023-10-23T09:15:26.584Z,5.32
2023-10-23T09:20:29.053Z,9.45
2023-10-23T09:30:33.576Z,5.00
2023-10-23T09:35:35.651Z,7.60
2023-10-23T09:40:37.783Z,4.82
2023-10-23T09:45:41.336Z,8.13
2023-10-23T09:50:46.167Z,9.10
2023-10-23T09:55:50.831Z,11.90
2023-10-23T10:00:57.154Z,11.55
2023-10-23T10:06:10.323Z,7.90
2023-10-23T10:11:14.284Z,9.10
2023-10-23T10:16:16.741Z,9.50
2023-10-23T10:21:23.911Z,11.98
2023-10-23T10:26:26.625Z,10.57
2023-10-23T10:31:28.911Z,10.23
2023-10-23T10:36:45.737Z,5.87
2023-10-23T10:41:52.949Z,9.40
2023-10-23T10:46:56.442Z,9.60
2023-10-23T10:51:59.107Z,12.65
2023-10-23T10:57:01.248Z,8.75
2023-10-23T11:02:04.229Z,9.73
2023-10-23T11:07:07.884Z,13.50
2023-10-23T11:12:10.075Z,16.73
2023-10-23T11:17:13.221Z,8.68
2023-10-23T11:22:16.975Z,9.20
2023-10-23T11:27:19.609Z,7.97
2023-10-23T11:32:21.874Z,10.70
2023-10-23T11:37:24.064Z,9.23
2023-10-23T11:42:26.238Z,14.57
2023-10-23T11:47:28.515Z,7.78
2023-10-23T11:52:30.826Z,7.97
2023-10-23T11:57:35.192Z,6.70
2023-10-23T12:02:37.349Z,9.57
2023-10-23T12:07:44.777Z,8.63
2023-10-23T12:12:48.106Z,5.75
2023-10-23T12:17:51.884Z,7.57
2023-10-23T12:22:54.038Z,6.15
2023-10-23T12:27:58.576Z,7.85
2023-10-23T12:33:16.720Z,9.70
2023-10-23T12:38:24.922Z,9.13
2023-10-23T12:43:27.176Z,9.25
2023-10-23T12:48:29.812Z,6.97
2023-10-23T12:53:32.061Z,9.00
2023-10-23T12:58:34.802Z,9.18
2023-10-23T13:03:37.103Z,9.07
2023-10-23T13:08:40.605Z,10.50
2023-10-23T13:13:42.751Z,12.73
2023-10-23T13:18:53.749Z,12.40
2023-10-23T13:23:56.474Z,9.40
2023-10-23T13:28:59.030Z,9.95
2023-10-23T13:34:01.647Z,8.00
2023-10-23T13:39:07.154Z,10.13
2023-10-23T13:44:09.463Z,9.05
2023-10-23T13:49:11.829Z,10.18
2023-10-23T13:54:14.215Z,7.28
2023-10-23T13:59:16.363Z,10.10
2023-10-23T14:04:18.637Z,12.90
2023-10-23T14:09:41.850Z,9.73
2023-10-23T14:14:43.196Z,13.70
2023-10-23T14:19:48.757Z,9.27
2023-10-23T14:24:51.931Z,10.35
2023-10-23T14:34:56.704Z,11.65
2023-10-23T14:39:59.550Z,10.52
2023-10-23T14:45:04.938Z,5.57
2023-10-23T14:50:08.186Z,7.60
2023-10-23T14:55:10.373Z,10.23
2023-10-23T15:00:12.967Z,16.08
2023-10-23T15:10:19.743Z,16.27
2023-10-23T15:15:24.994Z,15.32
2023-10-23T15:20:30.980Z,19.92
2023-10-23T15:25:33.184Z,14.27
2023-10-23T15:30:35.449Z,20.42
2023-10-23T15:35:37.835Z,7.93
2023-10-23T15:40:40.077Z,14.77
2023-10-23T15:45:42.359Z,9.95
2023-10-23T15:50:44.501Z,9.65
2023-10-23T15:55:48.091Z,13.60
2023-10-23T16:00:53.932Z,12.85
2023-10-23T16:06:08.780Z,9.50
2023-10-23T16:11:10.891Z,6.75
2023-10-23T16:16:16.793Z,8.25
2023-10-23T16:21:20.274Z,8.63
2023-10-23T16:26:22.952Z,9.48
2023-10-23T16:31:25.856Z,10.88
2023-10-23T16:41:31.227Z,8.95
2023-10-23T16:46:34.395Z,7.90
2023-10-23T16:51:36.619Z,10.10
2023-10-23T16:56:38.901Z,12.27
2023-10-23T17:01:41.152Z,8.60
2023-10-23T17:06:43.502Z,13.15
2023-10-23T17:11:46.086Z,13.55
2023-10-23T17:16:48.401Z,7.62
2023-10-23T17:21:50.532Z,10.32
2023-10-23T17:26:52.704Z,11.93
2023-10-23T17:31:54.987Z,7.15
2023-10-23T17:36:57.734Z,7.28
2023-10-23T17:42:01.445Z,8.18
2023-10-23T17:47:04.685Z,13.50
2023-10-23T17:52:07.102Z,9.63
2023-10-23T17:57:09.276Z,10.82
2023-10-23T18:02:11.483Z,5.05
2023-10-23T18:07:14.380Z,14.40
2023-10-23T18:12:31.209Z,7.68
2023-10-23T18:17:37.649Z,6.05
2023-10-23T18:22:40.112Z,7.87
2023-10-23T18:27:42.668Z,22.48
2023-10-23T18:32:44.854Z,19.77
2023-10-23T18:37:47.535Z,13.10
2023-10-23T18:47:58.054Z,5.82
2023-10-23T18:53:01.536Z,5.82
2023-10-23T18:58:04.215Z,21.92
2023-10-23T19:13:13.963Z,13.85
2023-10-23T19:18:19.407Z,15.93
2023-10-23T19:23:23.936Z,17.02
2023-10-23T19:28:27.465Z,16.25
2023-10-23T19:33:30.091Z,14.73
2023-10-23T19:43:42.588Z,9.73
2023-10-23T19:48:46.307Z,10.50
2023-10-23T19:53:53.280Z,11.00
2023-10-23T19:58:57.048Z,18.70
2023-10-23T20:03:59.482Z,16.00
2023-10-23T20:09:02.247Z,10.52
2023-10-23T20:19:08.863Z,10.82
2023-10-23T20:24:12.954Z,9.23
2023-10-23T20:29:15.078Z,7.50
2023-10-23T20:34:17.477Z,10.50
2023-10-23T20:39:19.768Z,14.50
2023-10-23T20:44:21.870Z,7.20
2023-10-23T20:49:24.056Z,7.43
2023-10-23T20:54:26.161Z,9.98
2023-10-23T20:59:28.263Z,13.48
2023-10-23T21:04:30.447Z,10.07
2023-10-23T21:09:33.095Z,11.32
2023-10-23T21:14:47.278Z,8.52
2023-10-23T21:19:49.450Z,10.95
2023-10-23T21:24:51.711Z,5.78
2023-10-23T21:29:53.847Z,10.60
2023-10-23T21:34:55.992Z,8.10
2023-10-23T21:39:58.627Z,11.15
2023-10-23T21:45:00.714Z,6.40
2023-10-23T21:50:03.219Z,6.90
2023-10-23T21:55:13.895Z,6.97
2023-10-23T22:00:30.532Z,8.30
2023-10-23T22:05:33.274Z,6.78
2023-10-23T22:15:37.916Z,7.32
2023-10-23T22:20:42.319Z,7.40
2023-10-23T22:25:44.526Z,11.73
2023-10-23T22:30:47.595Z,8.75
2023-10-23T22:35:49.820Z,6.60
2023-10-23T22:40:52.287Z,3.28
2023-10-23T22:46:02.159Z,4.07
2023-10-23T22:51:06.652Z,8.27
2023-10-23T22:56:11.876Z,10.25
2023-10-23T23:01:14.746Z,8.35
2023-10-23T23:06:19.760Z,7.12
2023-10-23T23:11:22.067Z,7.15
2023-10-23T23:16:26.298Z,6.07
2023-10-23T23:21:30.080Z,6.37
2023-10-23T23:26:32.604Z,8.80
2023-10-23T23:31:34.761Z,6.93
2023-10-23T23:36:37.124Z,5.90
2023-10-23T23:41:39.248Z,6.55
2023-10-23T23:46:42.367Z,5.32
2023-10-23T23:51:44.567Z,7.15
2023-10-23T23:56:47.044Z,4.25
